Midnight Dream — YJWE4 — position and weather

sailwx.info

Track history (hours):
 
Tides and Currents Weather Stations Pressure Air Temp Water Temp Dewpoint Dewpoint Depression Visibility Wind Speed Wind Dir Waves Ship Positions

Midnight Dream

Last reported at 2018-May-09 17:47 UTC. Time now 2018-May-22 21:15 UTC.
Position N 17°47' W 063°28'.
Warning: this ship's position is 13 days out of date.

Length 90 m; draft 14 m.

Type: Cargo ship. MMSI: 577368000.

Date/timePositionNaut miles runAvg speedWind from/ knotsBaromVisibWave heightAir tempDewpointWater temp
2018-May-09 17:47N 17°47' W 063°28'611.3
2018-May-09 17:14N 17°44' W 063°22'411.0
2018-May-09 16:55N 17°41' W 063°20'511.0
2018-May-09 16:29N 17°38' W 063°17'610.9
2018-May-09 15:57N 17°34' W 063°11'711.1
2018-May-09 15:17N 17°31' W 063°05'59 8.2
2018-May-09 08:03N 16°52' W 062°18'111.4
2018-May-09 08:00N 16°51' W 062°18'611.3
2018-May-09 07:30N 16°48' W 062°13'1 1.2
2018-May-09 07:00N 16°48' W 062°12'0 0.0
2018-May-09 06:30N 16°48' W 062°12'0 0.0
2018-May-09 06:00N 16°48' W 062°12'0 0.0
2018-May-09 05:30N 16°48' W 062°12'0 0.0
2018-May-09 05:00N 16°48' W 062°12'0 0.0
2018-May-09 04:30N 16°48' W 062°12'0 0.0
2018-May-09 04:00N 16°48' W 062°12'0 0.0
2018-May-09 03:30N 16°48' W 062°12'0 0.0
2018-May-09 03:00N 16°48' W 062°12'0 0.0
2018-May-09 02:30N 16°48' W 062°12'0 0.0
2018-May-09 02:00N 16°48' W 062°12'0 0.0
2018-May-09 01:30N 16°48' W 062°12'0 0.0
2018-May-09 01:00N 16°48' W 062°12'0 0.2
2018-May-09 00:30N 16°48' W 062°12'4 7.4
2018-May-09 00:00N 16°52' W 062°13'611.1
2018-May-08 23:30N 16°56' W 062°09'611.6
2018-May-08 23:00N 16°60' W 062°04'611.5
2018-May-08 22:30N 17°04' W 061°60'611.2
2018-May-08 22:00N 17°07' W 061°56'4 0.8
2018-May-08 16:39N 17°07' W 061°51'0 0.0
2018-May-08 16:30N 17°07' W 061°51'0 0.0
2018-May-08 16:00N 17°07' W 061°51'0 0.0
2018-May-08 15:30N 17°07' W 061°51'0 0.0
2018-May-08 15:00N 17°07' W 061°51'4 7.4
2018-May-08 14:30N 17°07' W 061°55'611.2
2018-May-08 14:00N 17°07' W 062°01'511.0
2018-May-08 13:30N 17°07' W 062°07'611.1
2018-May-08 12:59N 17°06' W 062°13'24 3.3
2018-May-08 05:38N 17°07' W 062°38'211.5
2018-May-08 05:29N 17°08' W 062°39'611.8
2018-May-08 05:00N 17°12' W 062°43'711.8
2018-May-08 04:25N 17°17' W 062°49'611.7
2018-May-08 03:56N 17°21' W 062°53'711.1
2018-May-08 03:17N 17°25' W 062°59'310.7
2018-May-08 02:59N 17°27' W 063°01'510.7
2018-May-08 02:29N 17°31' W 063°05'510.6
2018-May-08 02:00N 17°35' W 063°08'610.2
2018-May-08 01:23N 17°40' W 063°13'410.8
2018-May-08 01:00N 17°41' W 063°17'510.8
2018-May-08 00:30N 17°43' W 063°22'611.0
2018-May-07 23:58N 17°46' W 063°27'  
2018-May-03 09:45N 17°51' W 063°28'311.7
2018-May-03 09:30N 17°49' W 063°25'611.3
2018-May-03 08:58N 17°46' W 063°20'711.1
2018-May-03 08:23N 17°43' W 063°14'511.2
2018-May-03 07:56N 17°41' W 063°09'511.4
2018-May-03 07:28N 17°39' W 063°04'1611.0
2018-May-03 06:02N 17°30' W 062°50'310.6
2018-May-03 05:44N 17°28' W 062°47'23 5.4
2018-May-03 01:31N 17°13' W 062°29'011.3
2018-May-03 01:30N 17°13' W 062°29'1511.4
2018-May-03 00:12N 17°01' W 062°21'211.3
2018-May-03 00:00N 16°59' W 062°20'611.3
2018-May-02 23:30N 16°54' W 062°17'611.5
2018-May-02 23:00N 16°49' W 062°14'1 2.9
2018-May-02 22:30N 16°48' W 062°12'0 0.0
2018-May-02 22:00N 16°48' W 062°12'1 2.4
2018-May-02 21:30N 16°49' W 062°13'5 9.7
2018-May-02 21:00N 16°53' W 062°09'510.8
2018-May-02 20:30N 16°57' W 062°06'510.8
2018-May-02 20:00N 17°01' W 062°02'510.9
2018-May-02 19:30N 17°05' W 061°58'510.5
2018-May-02 19:00N 17°08' W 061°54'2 4.5
2018-May-02 18:28N 17°07' W 061°51'0 0.0
2018-May-02 18:00N 17°07' W 061°51'0 0.0
2018-May-02 17:30N 17°07' W 061°51'0 0.0
2018-May-02 17:00N 17°07' W 061°51'0 0.0
2018-May-02 16:30N 17°07' W 061°51'0 0.0
2018-May-02 16:00N 17°07' W 061°51'0 0.0
2018-May-02 15:30N 17°07' W 061°51'0 0.0
2018-May-02 14:59N 17°07' W 061°51'0 0.0
2018-May-02 14:30N 17°07' W 061°51'0 0.0
2018-May-02 14:00N 17°07' W 061°51'0 0.0
2018-May-02 13:30N 17°07' W 061°51'0 0.0
2018-May-02 13:00N 17°07' W 061°51'0 0.0
2018-May-02 12:30N 17°07' W 061°51'0 0.0
2018-May-02 12:00N 17°07' W 061°51'0 0.0
2018-May-02 11:30N 17°07' W 061°51'0 0.1
2018-May-02 11:00N 17°07' W 061°51'3 6.4
2018-May-02 10:31N 17°09' W 061°54'0 0.0
2018-May-02 10:00N 17°09' W 061°54'0 0.0
2018-May-02 09:30N 17°09' W 061°54'0 0.0
2018-May-02 09:00N 17°09' W 061°54'0 0.0
2018-May-02 08:30N 17°09' W 061°54'0 0.0
2018-May-02 07:59N 17°09' W 061°54'0 0.0
2018-May-02 07:29N 17°09' W 061°54'0 0.0
2018-May-02 07:00N 17°09' W 061°54'0 0.0
2018-May-02 06:30N 17°09' W 061°54'0 0.1
2018-May-02 06:00N 17°09' W 061°54'0 0.0
2018-May-02 05:30N 17°09' W 061°54'0 0.1
2018-May-02 05:00N 17°09' W 061°54'0 0.0
2018-May-02 04:30N 17°09' W 061°54'0 0.0
2018-May-02 04:00N 17°09' W 061°54'1 1.3
2018-May-02 03:30N 17°09' W 061°54'510.7
2018-May-02 03:00N 17°11' W 061°60'510.7
2018-May-02 02:30N 17°14' W 062°05'510.7
2018-May-02 02:00N 17°16' W 062°10'510.8
2018-May-02 01:30N 17°18' W 062°15'510.6
2018-May-02 01:00N 17°20' W 062°20'510.7
2018-May-02 00:30N 17°23' W 062°25'2310.7
2018-May-01 22:22N 17°32' W 062°46'410.6
2018-May-01 21:57N 17°34' W 062°50'510.4
2018-May-01 21:29N 17°37' W 062°55'510.3
2018-May-01 20:58N 17°39' W 062°60'610.5
2018-May-01 20:22N 17°42' W 063°06'410.3
2018-May-01 19:57N 17°43' W 063°10'510.3
2018-May-01 19:28N 17°46' W 063°15'510.4
2018-May-01 18:59N 17°48' W 063°19'510.4
2018-May-01 18:30N 17°50' W 063°24'510.2
2018-May-01 17:58N 17°53' W 063°29'510.2
2018-May-01 17:28N 17°55' W 063°34'  
Track history (hours):
 
Tides and Currents Weather Stations Pressure Air Temp Water Temp Dewpoint Dewpoint Depression Visibility Wind Speed Wind Dir Waves Ship Positions

Midnight Dream

Last reported at 2018-May-09 17:47 UTC. Time now 2018-May-22 21:15 UTC.
Position N 17°47' W 063°28'.
Warning: this ship's position is 13 days out of date.

Length 90 m; draft 14 m.

Type: Cargo ship. MMSI: 577368000.

Date/timePositionNaut miles runAvg speedWind from/ knotsBaromVisibWave heightAir tempDewpointWater temp
2018-May-09 17:47N 17°47' W 063°28'611.3
2018-May-09 17:14N 17°44' W 063°22'411.0
2018-May-09 16:55N 17°41' W 063°20'511.0
2018-May-09 16:29N 17°38' W 063°17'610.9
2018-May-09 15:57N 17°34' W 063°11'711.1
2018-May-09 15:17N 17°31' W 063°05'59 8.2
2018-May-09 08:03N 16°52' W 062°18'111.4
2018-May-09 08:00N 16°51' W 062°18'611.3
2018-May-09 07:30N 16°48' W 062°13'1 1.2
2018-May-09 07:00N 16°48' W 062°12'0 0.0
2018-May-09 06:30N 16°48' W 062°12'0 0.0
2018-May-09 06:00N 16°48' W 062°12'0 0.0
2018-May-09 05:30N 16°48' W 062°12'0 0.0
2018-May-09 05:00N 16°48' W 062°12'0 0.0
2018-May-09 04:30N 16°48' W 062°12'0 0.0
2018-May-09 04:00N 16°48' W 062°12'0 0.0
2018-May-09 03:30N 16°48' W 062°12'0 0.0
2018-May-09 03:00N 16°48' W 062°12'0 0.0
2018-May-09 02:30N 16°48' W 062°12'0 0.0
2018-May-09 02:00N 16°48' W 062°12'0 0.0
2018-May-09 01:30N 16°48' W 062°12'0 0.0
2018-May-09 01:00N 16°48' W 062°12'0 0.2
2018-May-09 00:30N 16°48' W 062°12'4 7.4
2018-May-09 00:00N 16°52' W 062°13'611.1
2018-May-08 23:30N 16°56' W 062°09'611.6
2018-May-08 23:00N 16°60' W 062°04'611.5
2018-May-08 22:30N 17°04' W 061°60'611.2
2018-May-08 22:00N 17°07' W 061°56'4 0.8
2018-May-08 16:39N 17°07' W 061°51'0 0.0
2018-May-08 16:30N 17°07' W 061°51'0 0.0
2018-May-08 16:00N 17°07' W 061°51'0 0.0
2018-May-08 15:30N 17°07' W 061°51'0 0.0
2018-May-08 15:00N 17°07' W 061°51'4 7.4
2018-May-08 14:30N 17°07' W 061°55'611.2
2018-May-08 14:00N 17°07' W 062°01'511.0
2018-May-08 13:30N 17°07' W 062°07'611.1
2018-May-08 12:59N 17°06' W 062°13'24 3.3
2018-May-08 05:38N 17°07' W 062°38'211.5
2018-May-08 05:29N 17°08' W 062°39'611.8
2018-May-08 05:00N 17°12' W 062°43'711.8
2018-May-08 04:25N 17°17' W 062°49'611.7
2018-May-08 03:56N 17°21' W 062°53'711.1
2018-May-08 03:17N 17°25' W 062°59'310.7
2018-May-08 02:59N 17°27' W 063°01'510.7
2018-May-08 02:29N 17°31' W 063°05'510.6
2018-May-08 02:00N 17°35' W 063°08'610.2
2018-May-08 01:23N 17°40' W 063°13'410.8
2018-May-08 01:00N 17°41' W 063°17'510.8
2018-May-08 00:30N 17°43' W 063°22'611.0
2018-May-07 23:58N 17°46' W 063°27'  
2018-May-03 09:45N 17°51' W 063°28'311.7
2018-May-03 09:30N 17°49' W 063°25'611.3
2018-May-03 08:58N 17°46' W 063°20'711.1
2018-May-03 08:23N 17°43' W 063°14'511.2
2018-May-03 07:56N 17°41' W 063°09'511.4
2018-May-03 07:28N 17°39' W 063°04'1611.0
2018-May-03 06:02N 17°30' W 062°50'310.6
2018-May-03 05:44N 17°28' W 062°47'23 5.4
2018-May-03 01:31N 17°13' W 062°29'011.3
2018-May-03 01:30N 17°13' W 062°29'1511.4
2018-May-03 00:12N 17°01' W 062°21'211.3
2018-May-03 00:00N 16°59' W 062°20'611.3
2018-May-02 23:30N 16°54' W 062°17'611.5
2018-May-02 23:00N 16°49' W 062°14'1 2.9
2018-May-02 22:30N 16°48' W 062°12'0 0.0
2018-May-02 22:00N 16°48' W 062°12'1 2.4
2018-May-02 21:30N 16°49' W 062°13'5 9.7
2018-May-02 21:00N 16°53' W 062°09'510.8
2018-May-02 20:30N 16°57' W 062°06'510.8
2018-May-02 20:00N 17°01' W 062°02'510.9
2018-May-02 19:30N 17°05' W 061°58'510.5
2018-May-02 19:00N 17°08' W 061°54'2 4.5
2018-May-02 18:28N 17°07' W 061°51'0 0.0
2018-May-02 18:00N 17°07' W 061°51'0 0.0
2018-May-02 17:30N 17°07' W 061°51'0 0.0
2018-May-02 17:00N 17°07' W 061°51'0 0.0
2018-May-02 16:30N 17°07' W 061°51'0 0.0
2018-May-02 16:00N 17°07' W 061°51'0 0.0
2018-May-02 15:30N 17°07' W 061°51'0 0.0
2018-May-02 14:59N 17°07' W 061°51'0 0.0
2018-May-02 14:30N 17°07' W 061°51'0 0.0
2018-May-02 14:00N 17°07' W 061°51'0 0.0
2018-May-02 13:30N 17°07' W 061°51'0 0.0
2018-May-02 13:00N 17°07' W 061°51'0 0.0
2018-May-02 12:30N 17°07' W 061°51'0 0.0
2018-May-02 12:00N 17°07' W 061°51'0 0.0
2018-May-02 11:30N 17°07' W 061°51'0 0.1
2018-May-02 11:00N 17°07' W 061°51'3 6.4
2018-May-02 10:31N 17°09' W 061°54'0 0.0
2018-May-02 10:00N 17°09' W 061°54'0 0.0
2018-May-02 09:30N 17°09' W 061°54'0 0.0
2018-May-02 09:00N 17°09' W 061°54'0 0.0
2018-May-02 08:30N 17°09' W 061°54'0 0.0
2018-May-02 07:59N 17°09' W 061°54'0 0.0
2018-May-02 07:29N 17°09' W 061°54'0 0.0
2018-May-02 07:00N 17°09' W 061°54'0 0.0
2018-May-02 06:30N 17°09' W 061°54'0 0.1
2018-May-02 06:00N 17°09' W 061°54'0 0.0
2018-May-02 05:30N 17°09' W 061°54'0 0.1
2018-May-02 05:00N 17°09' W 061°54'0 0.0
2018-May-02 04:30N 17°09' W 061°54'0 0.0
2018-May-02 04:00N 17°09' W 061°54'1 1.3
2018-May-02 03:30N 17°09' W 061°54'510.7
2018-May-02 03:00N 17°11' W 061°60'510.7
2018-May-02 02:30N 17°14' W 062°05'510.7
2018-May-02 02:00N 17°16' W 062°10'510.8
2018-May-02 01:30N 17°18' W 062°15'510.6
2018-May-02 01:00N 17°20' W 062°20'510.7
2018-May-02 00:30N 17°23' W 062°25'2310.7
2018-May-01 22:22N 17°32' W 062°46'410.6
2018-May-01 21:57N 17°34' W 062°50'510.4
2018-May-01 21:29N 17°37' W 062°55'510.3
2018-May-01 20:58N 17°39' W 062°60'610.5
2018-May-01 20:22N 17°42' W 063°06'410.3
2018-May-01 19:57N 17°43' W 063°10'510.3
2018-May-01 19:28N 17°46' W 063°15'510.4
2018-May-01 18:59N 17°48' W 063°19'510.4
2018-May-01 18:30N 17°50' W 063°24'510.2
2018-May-01 17:58N 17°53' W 063°29'510.2
2018-May-01 17:28N 17°55' W 063°34'  

Dump ship's entire track history